Time;durP1;ratioP1;P1;durP2;ratioP2;P2;SDS_P1;SDS_P2;PMS_P1;PMS_P2;Temp;Humidity;BMP_temperature;BMP_pressure;BME280_temperature;BME280_humidity;BME280_pressure;Samples;Min_cycle;Max_cycle;Signal;HPM_P1;HPM_P2
2021/03/27 00:00:21;;;;;;;15.70;9.48;;;;;;;30.78;47.85;100849.59;5037238;28;69851;-33
2021/03/27 00:03:04;;;;;;;21.05;9.55;;;;;;;30.78;49.52;100860.41;5067351;28;66600;-33
2021/03/27 00:05:59;;;;;;;;;;;;;;;30.76;50.00;100859.81;5036748;28;68984;-34
2021/03/27 00:08:52;;;;;;;15.20;8.15;;;;;;;30.84;49.25;100864.97;5034966;28;66308;-32
2021/03/27 00:12:03;;;;;;;17.98;9.10;;;;;;;30.88;49.84;100860.81;5031858;28;69843;-33
2021/03/27 00:14:41;;;;;;;22.02;10.32;;;;;;;30.92;50.76;100856.59;5031003;28;65972;-34
2021/03/27 00:17:41;;;;;;;25.30;10.60;;;;;;;30.97;48.66;100866.78;5040287;27;69201;-36
2021/03/27 00:20:35;;;;;;;25.63;10.48;;;;;;;31.20;51.85;100866.97;5029567;28;65610;-34
2021/03/27 00:23:07;;;;;;;22.38;10.40;;;;;;;31.33;51.28;100876.84;5032539;28;70032;-33
2021/03/27 00:25:51;;;;;;;21.65;9.38;;;;;;;31.40;51.04;100880.38;5031842;28;66576;-33
2021/03/27 00:28:59;;;;;;;22.95;10.02;;;;;;;31.33;51.22;100863.31;5029928;28;69346;-34
2021/03/27 00:31:42;;;;;;;25.17;10.25;;;;;;;31.44;52.32;100880.75;5032412;28;64844;-33
2021/03/27 00:34:21;;;;;;;30.55;10.23;;;;;;;31.52;52.67;100888.59;5032387;28;70647;-33
2021/03/27 00:36:56;;;;;;;24.65;9.65;;;;;;;31.50;51.98;100880.66;5043763;28;66020;-32
2021/03/27 00:39:28;;;;;;;17.63;9.45;;;;;;;31.56;51.92;100896.03;5039958;28;69339;-32
2021/03/27 00:42:10;;;;;;;23.20;10.02;;;;;;;31.61;52.54;100898.91;5034042;28;66120;-31
2021/03/27 00:44:46;;;;;;;23.45;9.57;;;;;;;31.57;53.11;100892.28;5028420;28;69192;-33
2021/03/27 00:47:21;;;;;;;20.45;9.80;;;;;;;31.56;52.62;100885.19;5037863;28;66155;-31
2021/03/27 00:50:13;;;;;;;22.60;10.50;;;;;;;31.66;53.33;100902.84;5024855;28;69813;-33
2021/03/27 00:52:51;;;;;;;23.50;10.18;;;;;;;31.63;53.80;100908.72;5032766;28;66490;-32
2021/03/27 00:55:29;;;;;;;25.25;11.02;;;;;;;31.65;52.93;100912.00;5067773;27;69775;-35
2021/03/27 00:58:06;;;;;;;16.75;9.50;;;;;;;31.68;53.57;100909.69;5051703;28;66217;-32
2021/03/27 01:00:44;;;;;;;18.90;9.73;;;;;;;31.69;52.91;100926.78;5042067;28;69808;-33
2021/03/27 01:03:40;;;;;;;12.52;9.18;;;;;;;31.73;53.29;100922.56;5037492;28;66151;-32
2021/03/27 01:06:33;;;;;;;16.92;9.25;;;;;;;31.78;52.87;100931.69;5015144;28;69767;-31
2021/03/27 01:09:31;;;;;;;14.60;8.50;;;;;;;31.77;53.22;100929.22;5032948;28;64979;-32
2021/03/27 01:12:42;;;;;;;12.55;8.63;;;;;;;31.79;53.36;100933.34;4981501;28;70740;-31
2021/03/27 01:15:23;;;;;;;16.17;9.45;;;;;;;31.81;53.81;100935.81;5035019;28;65932;-30
2021/03/27 01:18:15;;;;;;;20.15;9.65;;;;;;;31.80;53.80;100928.75;5030281;28;69910;-31
2021/03/27 01:21:04;;;;;;;10.73;8.60;;;;;;;31.85;53.65;100947.06;5034465;28;65662;-32
2021/03/27 01:23:34;;;;;;;9.20;7.70;;;;;;;31.93;53.39;100944.91;5027639;28;69366;-32
2021/03/27 01:26:11;;;;;;;11.27;9.00;;;;;;;31.94;54.14;100951.16;5034416;28;65509;-32
2021/03/27 01:28:51;;;;;;;13.38;9.15;;;;;;;31.97;53.58;100951.53;5036681;28;70048;-33
2021/03/27 01:31:26;;;;;;;14.27;8.65;;;;;;;31.98;53.49;100947.78;5038518;28;66294;-32
2021/03/27 01:34:02;;;;;;;21.52;8.80;;;;;;;32.02;53.75;100959.84;5034594;28;69636;-35
2021/03/27 01:36:40;;;;;;;33.55;11.35;;;;;;;32.03;53.60;100956.06;5039058;28;66021;-31
2021/03/27 01:39:25;;;;;;;33.28;13.65;;;;;;;32.04;53.79;100951.47;5014396;28;69520;-33
2021/03/27 01:42:19;;;;;;;25.52;13.13;;;;;;;32.12;53.64;100955.75;5034956;28;66215;-31
2021/03/27 01:44:51;;;;;;;19.38;12.50;;;;;;;32.15;53.59;100964.28;5034378;28;69280;-32
2021/03/27 01:47:32;;;;;;;18.80;10.90;;;;;;;32.17;53.27;100966.75;5038400;28;66772;-32
2021/03/27 01:50:09;;;;;;;20.58;10.93;;;;;;;32.11;53.91;100963.06;5043991;28;69801;-32
2021/03/27 01:53:04;;;;;;;16.70;10.68;;;;;;;32.08;53.40;100951.84;5025780;28;66442;-34
2021/03/27 01:55:52;;;;;;;21.23;10.05;;;;;;;32.19;53.23;100967.38;5040483;28;70445;-32
2021/03/27 01:58:42;;;;;;;17.55;9.13;;;;;;;32.27;53.29;100967.06;5036814;28;65386;-31
2021/03/27 02:01:19;;;;;;;11.07;7.68;;;;;;;32.26;53.38;100965.38;5059676;27;69550;-32
2021/03/27 02:03:59;;;;;;;14.15;8.20;;;;;;;32.28;53.24;100969.53;5030892;28;65421;-38
2021/03/27 02:06:50;;;;;;;8.48;7.60;;;;;;;32.34;53.18;100980.53;5032779;28;70103;-32
2021/03/27 02:09:27;;;;;;;11.68;8.07;;;;;;;32.41;52.88;100981.31;5032752;27;66172;-31
2021/03/27 02:12:32;;;;;;;8.68;7.53;;;;;;;32.44;52.91;100978.94;5033176;28;69771;-32
2021/03/27 02:15:07;;;;;;;8.40;7.07;;;;;;;32.48;52.59;100982.06;5027849;28;66513;-32
2021/03/27 02:17:48;;;;;;;8.52;7.72;;;;;;;32.52;52.83;100980.56;5046405;28;69828;-32
2021/03/27 02:20:36;;;;;;;9.90;6.90;;;;;;;32.58;52.82;100992.38;5038731;28;66179;-32
2021/03/27 02:23:38;;;;;;;11.73;6.30;;;;;;;32.60;52.57;100979.41;5015308;28;70311;-32
2021/03/27 02:26:22;;;;;;;6.88;6.20;;;;;;;32.67;52.11;100993.72;5036446;28;65432;-31
2021/03/27 02:28:54;;;;;;;9.40;6.57;;;;;;;32.68;51.06;100979.06;5037067;28;70041;-32
2021/03/27 02:31:30;;;;;;;7.35;6.72;;;;;;;32.63;50.00;100987.09;5034619;28;66423;-32
2021/03/27 02:34:38;;;;;;;6.82;6.30;;;;;;;32.54;48.24;100977.59;5034994;28;69877;-33
2021/03/27 02:37:53;;;;;;;7.70;6.20;;;;;;;32.57;46.90;100979.84;5019055;28;65915;-32
2021/03/27 02:40:28;;;;;;;6.25;5.82;;;;;;;32.54;47.00;100983.03;5007927;28;70205;-31
2021/03/27 02:43:24;;;;;;;8.70;6.50;;;;;;;32.47;45.86;100977.69;5036194;28;65984;-32
2021/03/27 02:46:30;;;;;;;6.80;6.20;;;;;;;32.47;45.54;100973.09;5031758;28;69693;-33
2021/03/27 02:49:25;;;;;;;8.00;5.85;;;;;;;32.38;45.00;100979.88;5026615;28;66153;-34
2021/03/27 02:52:15;;;;;;;5.90;5.30;;;;;;;32.30;44.60;100982.88;5030309;28;69045;-35
2021/03/27 02:55:02;;;;;;;7.07;5.60;;;;;;;32.27;44.29;100976.03;5023303;28;65379;-33
2021/03/27 02:58:00;;;;;;;5.65;5.13;;;;;;;32.22;43.17;100980.47;5034044;28;70129;-34
2021/03/27 03:00:41;;;;;;;7.15;5.03;;;;;;;32.07;42.36;100956.44;5032422;28;66267;-39
2021/03/27 03:03:18;;;;;;;5.15;4.72;;;;;;;32.14;42.39;100972.66;5026562;28;70332;-34
2021/03/27 03:06:06;;;;;;;6.00;4.75;;;;;;;32.08;41.36;100968.94;5033805;28;65952;-35
2021/03/27 03:09:01;;;;;;;12.40;4.63;;;;;;;32.12;41.02;100970.16;5013562;27;69301;-35
2021/03/27 03:12:04;;;;;;;5.10;4.80;;;;;;;32.10;40.83;100969.56;5033440;28;65410;-34
2021/03/27 03:14:55;;;;;;;17.35;5.03;;;;;;;31.98;40.09;100946.94;5018089;28;69158;-32
2021/03/27 03:17:35;;;;;;;20.52;4.30;;;;;;;32.12;40.04;100970.16;5033694;28;65886;-33
2021/03/27 03:20:28;;;;;;;5.35;4.85;;;;;;;32.11;39.95;100965.78;4990334;28;69412;-35
2021/03/27 03:23:17;;;;;;;6.03;4.43;;;;;;;32.09;39.68;100958.91;5024813;28;66217;-33
2021/03/27 03:26:20;;;;;;;5.32;4.40;;;;;;;32.03;39.60;100960.66;5026027;28;70014;-33
2021/03/27 03:29:01;;;;;;;8.00;4.20;;;;;;;32.09;40.08;100958.91;5022737;28;66660;-33
2021/03/27 03:31:54;;;;;;;4.80;4.40;;;;;;;32.05;40.09;100956.66;5024231;28;70250;-37
2021/03/27 03:34:29;;;;;;;5.20;4.70;;;;;;;32.07;39.11;100955.59;5025704;28;66732;-34
2021/03/27 03:37:08;;;;;;;4.97;4.40;;;;;;;31.92;38.42;100926.16;5023572;28;69365;-34
2021/03/27 03:40:14;;;;;;;5.05;4.40;;;;;;;32.03;39.00;100947.91;5026013;28;65604;-33
2021/03/27 03:43:15;;;;;;;7.10;4.30;;;;;;;32.01;38.37;100941.91;5026204;28;69929;-33
2021/03/27 03:46:13;;;;;;;5.03;4.60;;;;;;;32.01;38.09;100931.06;5022337;28;66875;-33
2021/03/27 03:49:08;;;;;;;4.53;4.13;;;;;;;32.00;37.90;100926.66;5023264;28;69845;-35
2021/03/27 03:51:47;;;;;;;4.90;4.50;;;;;;;32.02;37.79;100921.84;5012970;28;66276;-32
2021/03/27 03:54:25;;;;;;;5.50;4.20;;;;;;;32.04;37.93;100921.63;5028539;28;69778;-33
2021/03/27 03:57:21;;;;;;;4.60;3.90;;;;;;;32.00;37.68;100913.09;5022123;28;65472;-33
2021/03/27 03:59:57;;;;;;;10.43;4.75;;;;;;;32.07;38.63;100914.91;5026701;28;69565;-37
2021/03/27 04:02:32;;;;;;;10.60;5.10;;;;;;;32.10;38.69;100898.19;5026158;28;66988;-33
2021/03/27 04:05:33;;;;;;;10.45;6.07;;;;;;;32.20;41.28;100898.44;5059589;27;68396;-33
2021/03/27 04:08:11;;;;;;;7.07;6.35;;;;;;;32.27;41.29;100888.34;5017196;28;66248;-33
2021/03/27 04:10:44;;;;;;;6.70;6.10;;;;;;;32.26;40.80;100876.66;5024039;28;70399;-34
2021/03/27 04:13:19;;;;;;;6.82;6.25;;;;;;;32.32;39.93;100874.91;5022623;28;66290;-34
2021/03/27 04:16:02;;;;;;;10.68;5.38;;;;;;;32.28;39.52;100869.09;5023621;28;70735;-34
2021/03/27 04:18:43;;;;;;;8.05;5.35;;;;;;;32.22;39.26;100858.34;5026679;28;66588;-40
2021/03/27 04:21:21;;;;;;;6.30;5.63;;;;;;;32.27;38.51;100880.19;5032473;28;69850;-33
2021/03/27 04:24:11;;;;;;;5.80;5.40;;;;;;;32.22;38.52;100867.31;5036197;27;66557;-33
2021/03/27 04:26:49;;;;;;;5.65;4.80;;;;;;;32.23;37.50;100862.69;5019684;28;69700;-33
2021/03/27 04:29:29;;;;;;;6.55;4.40;;;;;;;32.23;37.71;100851.84;5036550;27;66557;-33
2021/03/27 04:32:20;;;;;;;8.20;4.90;;;;;;;32.19;36.77;100854.19;5027691;28;70053;-35
2021/03/27 04:35:10;;;;;;;6.50;5.30;;;;;;;32.19;37.23;100843.34;5023077;28;65229;-34
2021/03/27 04:37:54;;;;;;;5.32;4.93;;;;;;;32.26;37.03;100838.66;5046959;27;69893;-36
2021/03/27 04:40:46;;;;;;;4.82;4.43;;;;;;;32.22;36.41;100825.78;5031265;27;65622;-34
2021/03/27 04:43:20;;;;;;;5.18;4.80;;;;;;;32.23;35.83;100816.56;5047584;28;69423;-34
2021/03/27 04:46:03;;;;;;;5.10;4.70;;;;;;;32.21;36.41;100821.41;5021724;28;65441;-34
2021/03/27 04:48:55;;;;;;;4.93;4.60;;;;;;;32.14;35.31;100804.38;5058438;27;69920;-33
2021/03/27 04:51:45;;;;;;;4.10;3.80;;;;;;;32.21;36.00;100799.72;5025779;28;66125;-35
2021/03/27 04:54:27;;;;;;;6.65;4.63;;;;;;;32.21;35.83;100783.44;5024888;28;70234;-34
2021/03/27 04:57:02;;;;;;;4.20;3.90;;;;;;;32.22;35.90;100785.06;5025907;28;66958;-35
2021/03/27 04:59:50;;;;;;;4.68;4.28;;;;;;;32.20;34.97;100787.19;5027810;28;69638;-37
2021/03/27 05:02:54;;;;;;;4.28;3.97;;;;;;;32.19;35.79;100778.22;5017444;28;64740;-33
2021/03/27 05:05:39;;;;;;;3.97;3.78;;;;;;;32.24;34.96;100766.66;5022984;28;69452;-34
2021/03/27 05:08:17;;;;;;;4.55;4.07;;;;;;;32.23;35.08;100762.28;5027695;28;65631;-34
2021/03/27 05:11:09;;;;;;;4.00;3.80;;;;;;;32.28;34.65;100757.00;5028454;28;69647;-34
2021/03/27 05:13:52;;;;;;;7.53;4.03;;;;;;;32.25;34.48;100750.13;5030607;28;66278;-34
2021/03/27 05:16:48;;;;;;;3.70;3.50;;;;;;;32.13;34.60;100726.75;5039863;28;69366;-35
2021/03/27 05:19:35;;;;;;;4.35;4.05;;;;;;;32.29;34.36;100736.94;5027855;28;66117;-35
2021/03/27 05:22:36;;;;;;;3.72;3.53;;;;;;;32.28;34.47;100735.28;5031181;28;70336;-34
2021/03/27 05:25:21;;;;;;;3.83;3.63;;;;;;;32.32;34.48;100727.47;5026977;28;65559;-35
2021/03/27 05:28:27;;;;;;;3.63;3.42;;;;;;;32.27;33.72;100722.78;5031471;27;70233;-34
2021/03/27 05:31:26;;;;;;;5.35;4.95;;;;;;;32.26;35.24;100715.69;5032994;28;66267;-34
2021/03/27 05:34:15;;;;;;;10.27;5.00;;;;;;;32.11;35.35;100699.84;4990900;28;69964;-38
2021/03/27 05:36:47;;;;;;;5.45;5.07;;;;;;;32.04;35.45;100697.25;5027100;28;64766;-34
2021/03/27 05:39:44;;;;;;;5.47;4.97;;;;;;;31.99;35.22;100699.84;5026106;28;70907;-38
2021/03/27 05:42:28;;;;;;;5.80;5.22;;;;;;;31.81;34.83;100664.59;5030762;27;66594;-36
2021/03/27 05:45:20;;;;;;;5.50;5.03;;;;;;;32.08;35.27;100689.47;5046962;28;70506;-34
2021/03/27 05:48:11;;;;;;;7.10;4.95;;;;;;;32.14;34.56;100685.00;5041269;28;66623;-35
2021/03/27 05:51:02;;;;;;;5.97;5.40;;;;;;;32.17;34.47;100670.94;5033589;28;70767;-39
2021/03/27 05:53:52;;;;;;;5.80;5.07;;;;;;;32.18;34.56;100669.88;5036898;28;65881;-35
2021/03/27 05:56:44;;;;;;;5.85;5.28;;;;;;;32.18;34.22;100672.59;5039428;28;68998;-35
2021/03/27 05:59:35;;;;;;;5.43;4.68;;;;;;;32.16;34.77;100672.84;5041366;28;66744;-34
2021/03/27 06:02:36;;;;;;;7.85;5.15;;;;;;;31.92;33.94;100631.28;5035644;28;69627;-34
2021/03/27 06:05:28;;;;;;;6.50;5.53;;;;;;;32.00;35.04;100630.09;5040164;28;65533;-38
2021/03/27 06:08:28;;;;;;;6.28;5.15;;;;;;;32.11;34.44;100648.28;5037256;28;70019;-35
2021/03/27 06:11:33;;;;;;;4.97;4.60;;;;;;;32.03;34.44;100641.31;5042549;28;66072;-35
2021/03/27 06:14:11;;;;;;;4.68;4.22;;;;;;;32.13;34.49;100634.50;5022970;28;69965;-33
2021/03/27 06:16:46;;;;;;;5.38;4.97;;;;;;;32.15;34.14;100626.94;5031815;28;66038;-35
2021/03/27 06:19:53;;;;;;;5.57;5.15;;;;;;;32.12;34.32;100622.78;5042374;28;69861;-34
2021/03/27 06:22:45;;;;;;;6.50;4.30;;;;;;;32.21;34.07;100615.16;5048483;28;67191;-33
2021/03/27 06:25:33;;;;;;;6.47;4.78;;;;;;;32.28;33.69;100610.41;5042265;28;70222;-35
2021/03/27 06:28:21;;;;;;;4.82;4.50;;;;;;;32.36;33.69;100601.91;5029683;28;67135;-35
2021/03/27 06:30:56;;;;;;;5.97;4.70;;;;;;;32.39;33.22;100601.44;5034170;28;70074;-34
2021/03/27 06:34:02;;;;;;;5.05;4.75;;;;;;;32.43;33.85;100596.34;5031464;28;65305;-34
2021/03/27 06:36:57;;;;;;;4.80;4.38;;;;;;;32.54;33.52;100586.59;5037789;28;68756;-35
2021/03/27 06:40:05;;;;;;;5.45;4.95;;;;;;;32.59;33.52;100578.53;5061100;28;66116;-34
2021/03/27 06:42:52;;;;;;;5.13;4.72;;;;;;;32.69;33.24;100578.78;5037848;28;70207;-35
2021/03/27 06:45:31;;;;;;;8.10;4.85;;;;;;;32.71;33.30;100565.78;5043989;28;65843;-34
2021/03/27 06:48:12;;;;;;;7.03;4.53;;;;;;;32.76;33.47;100570.47;5038433;28;70830;-35
2021/03/27 06:51:04;;;;;;;5.50;4.32;;;;;;;32.81;33.60;100565.97;5033832;28;66025;-34
2021/03/27 06:53:57;;;;;;;6.40;3.90;;;;;;;32.82;32.78;100556.78;5038390;28;70462;-35
2021/03/27 06:56:45;;;;;;;4.90;4.50;;;;;;;32.83;33.32;100560.31;5046295;28;66152;-34
2021/03/27 07:00:03;;;;;;;4.60;4.22;;;;;;;32.94;32.55;100549.41;5037406;28;70102;-34
2021/03/27 07:02:50;;;;;;;9.50;4.22;;;;;;;33.04;32.92;100542.53;5036143;28;65864;-34
2021/03/27 07:05:53;;;;;;;3.97;3.67;;;;;;;33.05;32.93;100530.59;5046562;28;70070;-35
2021/03/27 07:09:05;;;;;;;4.60;4.28;;;;;;;33.02;32.68;100512.06;5039116;28;66107;-34
2021/03/27 07:12:03;;;;;;;4.13;3.80;;;;;;;33.20;32.78;100525.44;5049219;27;70096;-34
2021/03/27 07:15:06;;;;;;;3.95;3.65;;;;;;;33.27;32.31;100526.13;5035459;28;66184;-35
2021/03/27 07:17:59;;;;;;;6.47;3.65;;;;;;;33.35;32.51;100533.88;5035892;27;68986;-37
2021/03/27 07:20:40;;;;;;;4.18;3.80;;;;;;;33.37;32.40;100520.84;5031241;28;66852;-35
2021/03/27 07:23:16;;;;;;;4.95;3.55;;;;;;;33.44;32.54;100514.44;5037877;28;70448;-35
2021/03/27 07:26:08;;;;;;;3.92;3.70;;;;;;;33.52;32.61;100516.75;5025816;28;66400;-36
2021/03/27 07:28:44;;;;;;;5.50;3.95;;;;;;;33.56;32.34;100512.47;5022839;28;69901;-35
2021/03/27 07:31:37;;;;;;;5.57;4.35;;;;;;;33.60;31.95;100513.66;5027704;28;66500;-37
2021/03/27 07:34:33;;;;;;;4.25;3.50;;;;;;;33.63;31.92;100499.56;5045803;28;70336;-33
2021/03/27 07:37:39;;;;;;;6.97;3.67;;;;;;;33.63;32.21;100507.72;5024790;28;65265;-35
2021/03/27 07:40:15;;;;;;;7.97;3.30;;;;;;;33.73;32.04;100496.97;5019170;28;69878;-37
2021/03/27 07:43:18;;;;;;;9.63;3.30;;;;;;;33.80;32.35;100505.78;5018505;28;65905;-35
2021/03/27 07:46:14;;;;;;;12.32;3.67;;;;;;;33.82;32.51;100505.53;5028541;28;69959;-35
2021/03/27 07:49:02;;;;;;;16.63;4.13;;;;;;;33.90;32.59;100510.53;5029719;28;66016;-37
2021/03/27 07:51:55;;;;;;;20.13;4.07;;;;;;;33.98;32.40;100498.41;5029342;28;69956;-37
2021/03/27 07:54:59;;;;;;;30.65;4.30;;;;;;;33.93;32.53;100479.28;5041109;28;65110;-34
2021/03/27 07:57:55;;;;;;;42.15;4.63;;;;;;;34.11;32.81;100503.53;5038416;28;71795;-36
2021/03/27 08:00:33;;;;;;;164.73;35.15;;;;;;;34.17;32.84;100491.63;5027910;28;64394;-35
2021/03/27 08:03:21;;;;;;;154.75;34.67;;;;;;;34.21;33.01;100498.25;5053294;28;70376;-35
2021/03/27 08:05:53;;;;;;;151.02;34.60;;;;;;;34.23;33.71;100496.06;5019016;28;66064;-35
2021/03/27 08:08:26;;;;;;;164.23;37.10;;;;;;;34.42;34.12;100498.47;5027906;28;69766;-36
2021/03/27 08:11:22;;;;;;;130.23;31.50;;;;;;;34.60;35.47;100490.03;5037940;28;65774;-35
2021/03/27 08:14:10;;;;;;;77.55;19.27;;;;;;;34.86;37.82;100498.47;5040614;28;69802;-34
2021/03/27 08:16:56;;;;;;;37.72;12.23;;;;;;;35.00;40.02;100477.91;5023920;28;65387;-34
2021/03/27 08:19:46;;;;;;;32.53;9.35;;;;;;;35.20;40.01;100481.91;5033582;28;69424;-34
2021/03/27 08:22:44;;;;;;;15.25;6.93;;;;;;;35.25;39.62;100469.16;5025646;28;66166;-35
2021/03/27 08:25:13;;;;;;;21.42;7.60;;;;;;;35.46;39.90;100475.56;5033290;28;70342;-35
2021/03/27 08:27:49;;;;;;;18.50;8.10;;;;;;;35.55;40.80;100484.94;5028724;27;65792;-34
2021/03/27 08:30:40;;;;;;;22.02;7.63;;;;;;;35.63;41.24;100480.09;5029544;28;70670;-35
2021/03/27 08:33:12;;;;;;;18.55;6.93;;;;;;;35.76;41.00;100479.63;5040537;28;65248;-34
2021/03/27 08:35:58;;;;;;;13.27;7.53;;;;;;;35.85;41.20;100482.69;5041282;28;70666;-34
2021/03/27 08:39:22;;;;;;;23.42;10.65;;;;;;;35.96;41.20;100477.00;5033857;28;65379;-35
2021/03/27 08:42:29;;;;;;;29.13;11.38;;;;;;;36.09;40.87;100475.75;5008305;28;69871;-36
2021/03/27 08:45:22;;;;;;;19.33;10.07;;;;;;;36.18;41.34;100467.88;5022706;28;66699;-35
2021/03/27 08:48:10;;;;;;;15.60;9.13;;;;;;;36.26;41.20;100474.75;5034483;28;70307;-35
2021/03/27 08:50:54;;;;;;;21.55;9.02;;;;;;;36.31;40.83;100481.03;5032111;28;65175;-35
2021/03/27 08:53:38;;;;;;;47.92;12.32;;;;;;;36.38;40.70;100480.78;5030636;28;70138;-35
2021/03/27 08:56:41;;;;;;;41.67;10.70;;;;;;;36.30;39.68;100454.81;5031992;28;65961;-37
2021/03/27 08:59:31;;;;;;;43.78;11.95;;;;;;;36.53;39.19;100478.16;5033667;28;70570;-35
2021/03/27 09:02:12;;;;;;;40.20;11.70;;;;;;;36.58;39.54;100472.72;5044485;28;66227;-33
2021/03/27 09:04:48;;;;;;;42.33;13.10;;;;;;;36.43;39.08;100440.66;5023225;28;70150;-34
2021/03/27 09:07:45;;;;;;;33.20;11.45;;;;;;;36.60;39.11;100456.03;5044534;27;66176;-34
2021/03/27 09:11:00;;;;;;;33.85;12.45;;;;;;;36.62;40.20;100459.31;5029859;28;70426;-33
2021/03/27 09:13:51;;;;;;;34.72;13.05;;;;;;;36.75;40.43;100464.28;5036309;28;67248;-35
2021/03/27 09:16:55;;;;;;;27.83;13.02;;;;;;;36.80;40.86;100466.97;5025354;28;70551;-34
2021/03/27 09:19:46;;;;;;;34.65;13.63;;;;;;;36.81;40.52;100468.66;5033379;28;65977;-34
2021/03/27 09:22:31;;;;;;;38.57;13.10;;;;;;;36.87;39.42;100467.56;5024741;28;68969;-43
2021/03/27 09:25:00;;;;;;;27.92;10.27;;;;;;;36.91;39.53;100474.09;5030203;28;65785;-36
2021/03/27 09:28:16;;;;;;;27.25;9.85;;;;;;;36.83;40.06;100460.16;5035170;28;70067;-35
2021/03/27 09:31:07;;;;;;;30.55;10.38;;;;;;;37.02;40.05;100474.16;5038778;28;63798;-38
2021/03/27 09:33:44;;;;;;;21.88;10.15;;;;;;;37.06;40.32;100469.81;5031048;28;69502;-38
2021/03/27 09:36:36;;;;;;;19.92;9.63;;;;;;;37.10;40.03;100476.34;5030445;28;66935;-35
2021/03/27 09:39:39;;;;;;;32.78;9.63;;;;;;;37.12;40.31;100488.66;5026074;28;70981;-40
2021/03/27 09:42:21;;;;;;;27.48;9.80;;;;;;;37.13;40.08;100486.75;5030806;28;68415;-36
2021/03/27 09:45:10;;;;;;;20.17;8.43;;;;;;;37.15;39.74;100479.09;5034380;28;70264;-35
2021/03/27 09:48:13;;;;;;;16.20;7.72;;;;;;;37.10;39.96;100487.28;5031440;28;68001;-37
2021/03/27 09:51:15;;;;;;;21.15;7.63;;;;;;;36.97;40.96;100471.38;5035714;28;69729;-39
2021/03/27 09:54:09;;;;;;;18.02;8.20;;;;;;;37.11;40.20;100484.31;5034764;28;66641;-35
2021/03/27 09:57:01;;;;;;;23.05;9.50;;;;;;;37.09;40.08;100491.94;5054002;28;70090;-34
2021/03/27 09:59:45;;;;;;;30.95;14.70;;;;;;;37.11;40.30;100497.97;5031721;28;66146;-34
2021/03/27 10:02:38;;;;;;;26.70;12.35;;;;;;;37.11;40.63;100505.31;5026120;28;70592;-35
2021/03/27 10:05:28;;;;;;;22.02;9.80;;;;;;;37.14;40.57;100504.81;5028431;28;66064;-36
2021/03/27 10:08:24;;;;;;;17.50;9.40;;;;;;;37.11;39.90;100502.59;5011540;28;69885;-36
2021/03/27 10:11:12;;;;;;;19.30;8.55;;;;;;;37.01;40.17;100510.78;5024042;28;66719;-37
2021/03/27 10:13:58;;;;;;;14.38;8.63;;;;;;;37.05;40.52;100511.88;5028847;28;69613;-35
2021/03/27 10:16:50;;;;;;;18.75;8.70;;;;;;;37.03;40.94;100503.16;5010630;28;65308;-34
2021/03/27 10:19:19;;;;;;;14.98;8.60;;;;;;;37.04;40.22;100515.72;5028288;28;69828;-34
2021/03/27 10:22:00;;;;;;;24.88;8.57;;;;;;;37.00;41.12;100511.84;5039699;28;64917;-35
2021/03/27 10:24:48;;;;;;;21.20;7.97;;;;;;;37.00;41.05;100522.78;5035337;28;70078;-37
2021/03/27 10:27:20;;;;;;;24.05;7.85;;;;;;;36.96;40.91;100527.16;5034352;28;66516;-36
2021/03/27 10:30:03;;;;;;;14.43;7.07;;;;;;;36.89;40.82;100530.97;5035910;28;70088;-35
2021/03/27 10:32:33;;;;;;;15.43;6.25;;;;;;;36.88;40.62;100533.97;5036983;27;65459;-35
2021/03/27 10:35:26;;;;;;;13.43;6.50;;;;;;;36.81;41.31;100527.97;5038010;28;69430;-38
2021/03/27 10:38:05;;;;;;;9.65;6.30;;;;;;;36.76;41.66;100534.22;5035696;28;65259;-35
2021/03/27 10:40:40;;;;;;;13.48;5.88;;;;;;;36.77;41.14;100530.38;5021320;28;69715;-37
2021/03/27 10:43:35;;;;;;;13.90;6.53;;;;;;;36.76;41.34;100544.34;5036064;28;65177;-36
2021/03/27 10:46:45;;;;;;;17.45;6.57;;;;;;;36.67;41.42;100541.31;5038192;28;68944;-36
2021/03/27 10:49:32;;;;;;;18.55;6.95;;;;;;;36.65;41.69;100538.00;5033167;28;66128;-36
2021/03/27 10:52:25;;;;;;;17.83;7.50;;;;;;;36.65;42.41;100548.94;5035274;28;69840;-38
2021/03/27 10:55:16;;;;;;;17.83;7.85;;;;;;;36.60;42.64;100554.38;5003386;28;66310;-40
2021/03/27 10:58:14;;;;;;;18.30;7.30;;;;;;;36.53;42.03;100559.25;5031507;28;70073;-36
2021/03/27 11:01:05;;;;;;;9.23;6.88;;;;;;;36.56;41.89;100565.03;5042420;28;66311;-35
2021/03/27 11:03:52;;;;;;;15.40;8.00;;;;;;;36.51;41.78;100564.16;5022565;28;70379;-36
2021/03/27 11:06:34;;;;;;;16.02;8.13;;;;;;;36.49;42.20;100566.34;5035387;27;66718;-36
2021/03/27 11:09:41;;;;;;;15.55;8.23;;;;;;;36.38;42.47;100573.66;5043052;27;70527;-37
2021/03/27 11:12:35;;;;;;;11.82;7.10;;;;;;;36.37;42.53;100578.31;5039529;27;66784;-37
2021/03/27 11:15:33;;;;;;;20.83;7.32;;;;;;;36.28;41.47;100590.00;5031315;28;70634;-35
2021/03/27 11:18:11;;;;;;;11.38;6.63;;;;;;;36.12;40.97;100591.81;5025715;28;65457;-35
2021/03/27 11:20:43;;;;;;;17.98;7.10;;;;;;;36.00;40.90;100587.34;5037317;27;69789;-38
2021/03/27 11:23:23;;;;;;;16.85;6.80;;;;;;;35.80;40.92;100579.84;5042199;28;43547;-34
2021/03/27 11:25:58;;;;;;;13.93;6.40;;;;;;;35.74;40.49;100580.84;5025980;28;69523;-39
2021/03/27 11:28:30;;;;;;;10.05;6.60;;;;;;;35.63;39.50;100584.56;5026768;28;66678;-37
2021/03/27 11:31:38;;;;;;;8.05;5.97;;;;;;;35.52;38.38;100589.13;5027336;28;69417;-34
2021/03/27 11:34:30;;;;;;;6.47;5.60;;;;;;;35.43;37.91;100596.09;5027462;28;66432;-36
2021/03/27 11:37:27;;;;;;;13.98;5.32;;;;;;;35.27;37.98;100580.66;5007670;28;69726;-34
2021/03/27 11:40:34;;;;;;;11.65;5.70;;;;;;;35.18;37.35;100593.13;5022464;28;65095;-33
2021/03/27 11:43:10;;;;;;;8.93;5.68;;;;;;;35.10;36.82;100597.13;5015635;28;69915;-34
2021/03/27 11:46:02;;;;;;;12.80;6.22;;;;;;;34.94;37.11;100593.41;5023140;28;66276;-36
2021/03/27 11:48:44;;;;;;;23.90;6.85;;;;;;;34.85;38.05;100605.81;5029416;28;70811;-33
2021/03/27 11:51:44;;;;;;;17.98;6.40;;;;;;;34.81;37.77;100605.50;5025636;28;65887;-37
2021/03/27 11:54:24;;;;;;;15.77;6.35;;;;;;;34.74;38.75;100612.22;5043012;28;69826;-37
2021/03/27 11:57:09;;;;;;;30.02;5.85;;;;;;;34.63;38.82;100613.97;5041952;28;65874;-35
2021/03/27 12:03:02;;;;;;;21.17;7.22;;;;;;;34.47;39.28;100618.38;5032965;28;66080;-34
2021/03/27 12:05:53;;;;;;;28.90;7.18;;;;;;;34.39;39.72;100630.53;5042170;28;69988;-38
2021/03/27 12:08:59;;;;;;;9.10;6.22;;;;;;;34.19;39.94;100614.72;5029592;28;65365;-36
2021/03/27 12:11:48;;;;;;;17.83;6.18;;;;;;;34.28;39.64;100627.91;5021462;28;70256;-37
2021/03/27 12:14:40;;;;;;;13.45;6.57;;;;;;;34.10;38.90;100602.59;5024082;28;66548;-36
2021/03/27 12:17:28;;;;;;;14.40;6.47;;;;;;;34.16;38.60;100628.00;5013087;28;70016;-35
2021/03/27 12:20:32;;;;;;;21.85;6.22;;;;;;;34.09;39.08;100632.78;5024366;28;67065;-35
2021/03/27 12:23:22;;;;;;;12.50;5.85;;;;;;;34.04;38.94;100641.66;5020012;28;68665;-36
2021/03/27 12:26:00;;;;;;;8.80;6.88;;;;;;;33.91;38.30;100639.28;5022943;28;65309;-35
2021/03/27 12:28:49;;;;;;;16.48;6.80;;;;;;;33.64;38.28;100604.53;5022221;28;70354;-34
2021/03/27 12:31:36;;;;;;;10.63;6.13;;;;;;;33.77;38.05;100634.16;5028719;27;65743;-34
2021/03/27 12:34:30;;;;;;;11.18;7.10;;;;;;;33.73;37.73;100638.41;5030277;27;69136;-35
2021/03/27 12:37:25;;;;;;;10.90;6.90;;;;;;;33.70;37.42;100644.34;5030793;28;65404;-36
2021/03/27 12:39:57;;;;;;;14.18;7.53;;;;;;;33.59;37.97;100642.53;5045747;27;69995;-37
2021/03/27 12:42:43;;;;;;;19.35;7.13;;;;;;;33.53;37.30;100638.06;5024205;28;66294;-34
2021/03/27 12:45:22;;;;;;;14.63;6.70;;;;;;;33.47;37.11;100633.59;5022702;28;69946;-38
2021/03/27 12:48:01;;;;;;;17.90;6.50;;;;;;;33.42;36.52;100636.19;5022005;28;65927;-38
2021/03/27 12:51:21;;;;;;;13.13;6.75;;;;;;;33.35;36.87;100642.63;5024123;28;70369;-38
2021/03/27 12:54:20;;;;;;;15.82;5.80;;;;;;;33.32;36.24;100642.25;4998217;28;67254;-34
2021/03/27 12:57:09;;;;;;;10.38;5.70;;;;;;;33.24;36.38;100646.22;5029726;28;69847;-36
2021/03/27 13:00:19;;;;;;;22.40;5.50;;;;;;;33.13;36.24;100656.06;5010985;28;66384;-35